Time;durP1;ratioP1;P1;durP2;ratioP2;P2;SDS_P1;SDS_P2;PMS_P1;PMS_P2;Temp;Humidity;BMP_temperature;BMP_pressure;BME280_temperature;BME280_humidity;BME280_pressure;Samples;Min_cycle;Max_cycle;Signal;HPM_P1;HPM_P2
2023/02/03 00:56:11;;;;;;;14.75;6.75;;;2.50;1.00;;;;;;4911988;29;20227;-92
2023/02/03 01:13:33;;;;;;;18.50;7.35;;;;;;;;;;4942842;28;20196;-89
2023/02/03 01:18:38;;;;;;;13.85;8.05;;;2.60;1.00;;;;;;4923359;29;20234;-81
2023/02/03 01:21:07;;;;;;;13.30;10.90;;;2.60;1.00;;;;;;4924278;29;20214;-81
2023/02/03 01:23:34;;;;;;;15.50;8.82;;;2.60;1.00;;;;;;4935185;29;20231;-80
2023/02/03 01:26:03;;;;;;;11.80;9.13;;;2.70;10.00;;;;;;4936431;29;20208;-80
2023/02/03 01:28:30;;;;;;;15.77;10.65;;;2.60;1.00;;;;;;4937085;29;20208;-81
2023/02/03 01:30:57;;;;;;;16.42;8.32;;;2.60;1.00;;;;;;4938142;29;20203;-81
2023/02/03 01:33:24;;;;;;;19.20;9.98;;;2.60;1.00;;;;;;4940154;29;20208;-81
2023/02/03 01:35:52;;;;;;;23.30;11.93;;;2.70;1.00;;;;;;4939382;29;20196;-80
2023/02/03 01:38:18;;;;;;;16.77;9.50;;;2.60;7.20;;;;;;4933255;29;20224;-80
2023/02/03 01:40:45;;;;;;;20.75;8.65;;;2.70;18.10;;;;;;4927159;29;20204;-80
2023/02/03 01:43:27;;;;;;;13.25;9.98;;;2.70;28.20;;;;;;4925778;29;20208;-80
2023/02/03 01:45:54;;;;;;;13.23;8.30;;;2.70;39.10;;;;;;4923066;29;20651;-80
2023/02/03 01:48:20;;;;;;;14.93;9.40;;;2.70;51.70;;;;;;4921072;29;20355;-80
2023/02/03 01:50:47;;;;;;;17.42;9.82;;;2.80;99.90;;;;;;4921546;29;20686;-80
2023/02/03 01:53:15;;;;;;;19.92;11.43;;;2.70;78.30;;;;;;4922033;29;20232;-80
2023/02/03 01:55:47;;;;;;;20.20;11.75;;;2.70;90.30;;;;;;4922644;29;20212;-81
2023/02/03 01:58:19;;;;;;;19.45;11.48;;;2.70;96.70;;;;;;4924492;29;20234;-82
2023/02/03 02:00:46;;;;;;;14.35;9.50;;;2.70;99.90;;;;;;4934738;29;20197;-81
2023/02/03 02:03:14;;;;;;;20.50;9.77;;;2.70;99.90;;;;;;4934554;29;20256;-80
2023/02/03 02:05:48;;;;;;;14.52;10.00;;;2.60;99.90;;;;;;4929194;29;20690;-80
2023/02/03 02:08:18;;;;;;;17.30;9.15;;;2.70;99.90;;;;;;4935582;29;20258;-80
2023/02/03 02:10:45;;;;;;;15.70;8.85;;;2.30;99.90;;;;;;4936425;29;20197;-81
2023/02/03 02:13:13;;;;;;;20.48;9.88;;;2.50;99.90;;;;;;4928616;29;20710;-80
2023/02/03 02:15:50;;;;;;;20.48;9.65;;;2.60;99.90;;;;;;4923049;29;20208;-81
2023/02/03 02:18:41;;;;;;;16.92;8.57;;;2.60;99.90;;;;;;4923266;29;20241;-80
2023/02/03 02:21:52;;;;;;;12.90;8.02;;;2.60;99.90;;;;;;4923038;29;20648;-80
2023/02/03 02:24:59;;;;;;;16.23;10.07;;;2.70;99.90;;;;;;4923560;29;20284;-81
2023/02/03 02:27:48;;;;;;;32.25;17.60;;;2.60;99.90;;;;;;4922935;29;20270;-80
2023/02/03 02:30:55;;;;;;;15.05;10.90;;;2.40;99.90;;;;;;4923544;29;20763;-80
2023/02/03 02:33:34;;;;;;;16.33;8.48;;;2.70;99.90;;;;;;4922751;29;20216;-81
2023/02/03 02:36:10;;;;;;;14.05;9.02;;;2.50;99.90;;;;;;4922970;29;20259;-80
2023/02/03 02:38:46;;;;;;;11.50;8.32;;;2.70;99.90;;;;;;4925020;29;20234;-81
2023/02/03 02:41:18;;;;;;;9.65;6.55;;;2.60;99.90;;;;;;4923915;29;20651;-82
2023/02/03 02:43:49;;;;;;;12.48;7.82;;;2.60;99.90;;;;;;4923184;29;20193;-80
2023/02/03 02:46:22;;;;;;;10.52;6.65;;;3.40;99.90;;;;;;4922544;29;20191;-81
2023/02/03 02:48:57;;;;;;;9.35;6.93;;;2.50;99.90;;;;;;4922504;29;20192;-82
2023/02/03 02:51:24;;;;;;;7.88;6.00;;;2.50;99.90;;;;;;4922812;29;20188;-81
2023/02/03 02:53:55;;;;;;;8.38;5.30;;;2.40;99.90;;;;;;4935205;29;20271;-81
2023/02/03 02:56:25;;;;;;;7.75;5.68;;;2.40;99.90;;;;;;4936964;29;20239;-81
2023/02/03 02:58:53;;;;;;;6.68;5.60;;;2.30;99.90;;;;;;4937208;29;20244;-81
2023/02/03 03:01:20;;;;;;;5.80;4.68;;;2.30;99.90;;;;;;4937701;29;20231;-81
2023/02/03 03:03:48;;;;;;;6.45;4.40;;;2.00;99.90;;;;;;4937796;29;20212;-81
2023/02/03 03:06:19;;;;;;;5.57;5.00;;;2.50;99.90;;;;;;4936073;29;20271;-80
2023/02/03 03:08:51;;;;;;;5.07;4.57;;;2.40;99.90;;;;;;4930428;29;20534;-81
2023/02/03 03:11:19;;;;;;;4.70;3.80;;;2.40;99.90;;;;;;4925168;29;20228;-82
2023/02/03 03:13:50;;;;;;;8.85;4.70;;;2.50;99.90;;;;;;4941127;29;20238;-80
2023/02/03 03:16:20;;;;;;;6.50;4.38;;;2.20;99.90;;;;;;4940329;28;20176;-80
2023/02/03 03:18:51;;;;;;;6.75;4.50;;;2.30;99.90;;;;;;4942113;28;20184;-79
2023/02/03 03:21:24;;;;;;;5.70;4.70;;;2.50;99.90;;;;;;4942102;28;20178;-79
2023/02/03 03:23:53;;;;;;;4.50;3.78;;;2.40;99.90;;;;;;4928997;28;20286;-80
2023/02/03 03:26:27;;;;;;;6.07;3.88;;;2.40;99.90;;;;;;4918287;29;20228;-80
2023/02/03 03:29:03;;;;;;;3.92;3.63;;;2.50;99.90;;;;;;4919217;29;20192;-81
2023/02/03 03:31:30;;;;;;;4.28;3.88;;;2.50;99.90;;;;;;4919480;29;20288;-81
2023/02/03 03:33:57;;;;;;;4.70;3.65;;;2.50;99.90;;;;;;4920259;29;20583;-82
2023/02/03 03:36:29;;;;;;;3.70;3.40;;;2.50;99.90;;;;;;4924618;29;20596;-81
2023/02/03 03:39:03;;;;;;;5.00;4.30;;;2.60;99.90;;;;;;4919248;29;20193;-80
2023/02/03 03:41:39;;;;;;;4.70;4.30;;;2.50;99.90;;;;;;4919107;29;20293;-80
2023/02/03 03:44:12;;;;;;;3.95;3.65;;;2.90;99.90;;;;;;4919490;29;20563;-82
2023/02/03 03:46:44;;;;;;;4.68;3.65;;;2.70;99.90;;;;;;4920343;29;20228;-82
2023/02/03 03:49:13;;;;;;;3.17;2.95;;;2.70;99.90;;;;;;4920118;29;20210;-82
2023/02/03 03:51:46;;;;;;;3.58;3.28;;;2.60;99.90;;;;;;4920592;29;20218;-82
2023/02/03 03:54:15;;;;;;;3.63;3.33;;;2.60;99.90;;;;;;4920202;29;20196;-82
2023/02/03 03:56:47;;;;;;;4.65;3.42;;;2.70;99.90;;;;;;4919615;29;20323;-82
2023/02/03 03:59:16;;;;;;;4.10;3.70;;;2.70;99.90;;;;;;4920430;29;20275;-82
2023/02/03 04:01:44;;;;;;;4.00;3.60;;;2.70;99.90;;;;;;4919992;29;20222;-81
2023/02/03 04:04:12;;;;;;;4.30;3.90;;;2.70;99.90;;;;;;4920777;29;20279;-81
2023/02/03 04:06:41;;;;;;;5.15;4.10;;;2.70;99.90;;;;;;4924750;29;20746;-81
2023/02/03 04:09:07;;;;;;;5.57;4.50;;;2.80;99.90;;;;;;4925863;29;20302;-81
2023/02/03 04:14:19;;;;;;;7.05;5.75;;;2.80;99.90;;;;;;4934416;29;20212;-81
2023/02/03 04:16:48;;;;;;;5.65;4.90;;;2.80;99.90;;;;;;4926997;29;20322;-81
2023/02/03 04:19:15;;;;;;;5.72;5.15;;;2.90;99.90;;;;;;4920649;29;20710;-81
2023/02/03 04:21:44;;;;;;;6.03;5.15;;;2.90;99.90;;;;;;4920474;29;20216;-81
2023/02/03 04:24:10;;;;;;;5.57;4.40;;;2.90;99.90;;;;;;4920969;29;20302;-81
2023/02/03 04:26:37;;;;;;;5.55;5.05;;;2.90;99.90;;;;;;4923893;29;20263;-81
2023/02/03 04:29:05;;;;;;;6.00;5.40;;;;;;;;;;4924246;29;20208;-81
2023/02/03 04:31:31;;;;;;;7.00;5.72;;;2.90;99.90;;;;;;4923201;29;20206;-82
2023/02/03 04:33:58;;;;;;;5.70;5.20;;;3.00;99.90;;;;;;4923278;29;20238;-81
2023/02/03 04:36:25;;;;;;;9.15;6.03;;;3.10;99.90;;;;;;4921946;29;20228;-81
2023/02/03 04:38:53;;;;;;;8.73;7.00;;;3.10;99.90;;;;;;4925472;29;20250;-82
2023/02/03 04:41:20;;;;;;;9.48;7.30;;;3.20;99.90;;;;;;4932324;29;20251;-82
2023/02/03 04:43:47;;;;;;;8.75;7.85;;;4.20;99.90;;;;;;4930723;29;20204;-82
2023/02/03 04:46:15;;;;;;;8.48;7.55;;;3.60;99.90;;;;;;4933572;29;20212;-81
2023/02/03 04:48:42;;;;;;;11.82;8.80;;;3.40;99.90;;;;;;4935196;29;20212;-82
2023/02/03 04:51:09;;;;;;;10.00;7.18;;;3.50;99.90;;;;;;4935798;29;20211;-81
2023/02/03 04:53:36;;;;;;;9.80;7.95;;;3.60;99.90;;;;;;4935223;29;20636;-81
2023/02/03 04:56:05;;;;;;;13.10;8.73;;;3.80;99.90;;;;;;4934997;29;20237;-81
2023/02/03 04:58:32;;;;;;;13.25;8.73;;;3.60;99.90;;;;;;4934974;29;20271;-81
2023/02/03 05:00:58;;;;;;;11.25;9.05;;;4.10;99.90;;;;;;4935092;29;20239;-81
2023/02/03 05:03:25;;;;;;;12.50;9.15;;;3.80;99.90;;;;;;4933836;29;20267;-82
2023/02/03 05:05:52;;;;;;;16.63;10.18;;;3.70;99.90;;;;;;4934525;29;20212;-81
2023/02/03 05:08:19;;;;;;;16.13;10.40;;;4.10;99.90;;;;;;4934977;29;20251;-81
2023/02/03 05:10:46;;;;;;;17.08;11.95;;;4.10;99.90;;;;;;4934756;29;20309;-81
2023/02/03 05:13:14;;;;;;;18.30;11.80;;;4.10;99.90;;;;;;4934690;29;20247;-81
2023/02/03 05:15:41;;;;;;;18.38;11.98;;;4.20;99.90;;;;;;4930610;29;20222;-81
2023/02/03 05:18:08;;;;;;;17.38;11.35;;;4.60;99.90;;;;;;4929227;29;20236;-81
2023/02/03 05:20:35;;;;;;;18.38;12.35;;;4.60;99.90;;;;;;4930381;29;20621;-81
2023/02/03 05:23:02;;;;;;;17.58;12.77;;;4.30;99.90;;;;;;4934615;29;20303;-81
2023/02/03 05:25:28;;;;;;;20.77;13.60;;;4.40;99.90;;;;;;4934459;29;20296;-81
2023/02/03 05:27:55;;;;;;;19.30;11.93;;;4.40;99.90;;;;;;4934273;29;20230;-81
2023/02/03 05:30:23;;;;;;;20.30;14.32;;;4.40;99.90;;;;;;4931952;29;20693;-80
2023/02/03 05:32:50;;;;;;;23.95;13.82;;;4.50;99.90;;;;;;4930616;29;20247;-81
2023/02/03 05:35:17;;;;;;;21.50;14.43;;;4.50;99.90;;;;;;4933558;29;20239;-81
2023/02/03 05:37:45;;;;;;;25.98;15.13;;;4.60;99.90;;;;;;4934821;29;20695;-81
2023/02/03 05:42:58;;;;;;;25.30;16.58;;;4.70;99.90;;;;;;4933991;29;20598;-81
2023/02/03 05:45:26;;;;;;;26.75;14.68;;;5.10;1.00;;;;;;4934863;29;20629;-80
2023/02/03 05:47:53;;;;;;;31.48;18.13;;;5.40;1.00;;;;;;4933465;29;20482;-80
2023/02/03 05:50:21;;;;;;;33.03;17.77;;;5.00;99.90;;;;;;4933899;29;20232;-81
2023/02/03 05:52:48;;;;;;;32.50;17.45;;;4.80;1.00;;;;;;4934666;29;20258;-82
2023/02/03 05:55:15;;;;;;;33.28;18.50;;;5.20;99.90;;;;;;4932225;29;20204;-80
2023/02/03 05:57:42;;;;;;;32.97;17.48;;;5.20;99.90;;;;;;4934784;29;20778;-82
2023/02/03 06:00:10;;;;;;;31.67;20.23;;;5.20;99.90;;;;;;4932227;29;20236;-82
2023/02/03 06:02:38;;;;;;;31.77;18.30;;;5.30;99.90;;;;;;4926509;29;20204;-81
2023/02/03 06:05:06;;;;;;;37.30;20.30;;;5.30;99.90;;;;;;4925530;29;20204;-83
2023/02/03 06:07:33;;;;;;;28.60;18.15;;;4.70;1.00;;;;;;4924445;29;20259;-81
2023/02/03 06:10:00;;;;;;;33.92;18.63;;;5.40;1.00;;;;;;4930007;29;20212;-82
2023/02/03 06:12:26;;;;;;;36.30;19.58;;;5.50;1.00;;;;;;4932833;29;20240;-82
2023/02/03 06:14:53;;;;;;;36.65;20.77;;;5.60;1.00;;;;;;4941092;29;20238;-81
2023/02/03 06:17:20;;;;;;;32.80;18.60;;;5.70;1.00;;;;;;4938877;29;20323;-81
2023/02/03 06:19:51;;;;;;;36.78;19.15;;;5.70;1.00;;;;;;4926222;29;20303;-82
2023/02/03 06:22:17;;;;;;;37.55;20.23;;;5.70;1.00;;;;;;4924651;29;20715;-82
2023/02/03 06:24:46;;;;;;;39.30;20.98;;;5.80;1.00;;;;;;4923986;29;20200;-82
2023/02/03 06:27:13;;;;;;;35.30;20.38;;;6.10;1.00;;;;;;4925503;29;20258;-82
2023/02/03 06:29:40;;;;;;;33.85;20.45;;;5.90;1.00;;;;;;4935199;29;20208;-81
2023/02/03 06:32:07;;;;;;;36.03;20.15;;;6.00;1.00;;;;;;4936038;29;20235;-81
2023/02/03 06:34:34;;;;;;;34.30;19.70;;;5.90;1.00;;;;;;4935005;29;20238;-81
2023/02/03 06:37:02;;;;;;;37.85;19.20;;;6.00;1.00;;;;;;4935110;29;20227;-81
2023/02/03 06:39:29;;;;;;;34.60;19.92;;;6.10;1.00;;;;;;4935945;29;20212;-81
2023/02/03 06:41:55;;;;;;;31.92;19.63;;;6.10;1.00;;;;;;4934432;29;20212;-81
2023/02/03 06:44:22;;;;;;;37.72;20.65;;;6.10;1.00;;;;;;4930790;29;20235;-82
2023/02/03 06:46:50;;;;;;;39.38;18.92;;;5.90;1.00;;;;;;4924144;29;20294;-83
2023/02/03 06:49:17;;;;;;;39.15;19.83;;;6.20;1.00;;;;;;4924264;29;20211;-82
2023/02/03 06:51:44;;;;;;;38.78;20.05;;;6.20;1.00;;;;;;4926915;29;20235;-82
2023/02/03 06:54:13;;;;;;;29.27;19.17;;;6.30;1.00;;;;;;4924228;29;20226;-82
2023/02/03 06:56:40;;;;;;;29.90;19.20;;;6.30;1.00;;;;;;4924104;29;20231;-81
2023/02/03 06:59:07;;;;;;;31.33;18.70;;;6.40;1.00;;;;;;4924358;29;20214;-82
2023/02/03 07:01:34;;;;;;;32.22;19.40;;;6.30;1.00;;;;;;4923072;29;20552;-83
2023/02/03 07:04:01;;;;;;;30.48;20.10;;;6.40;1.00;;;;;;4923907;29;20731;-83
2023/02/03 07:06:31;;;;;;;31.25;19.95;;;6.50;1.00;;;;;;4923451;29;20318;-81
2023/02/03 07:08:58;;;;;;;27.65;18.80;;;6.50;1.00;;;;;;4923746;29;20242;-82
2023/02/03 07:11:27;;;;;;;32.88;18.90;;;6.50;1.00;;;;;;4923259;29;20586;-82
2023/02/03 07:13:54;;;;;;;36.22;19.60;;;6.90;1.00;;;;;;4923009;29;20227;-80
2023/02/03 07:16:21;;;;;;;29.98;19.83;;;6.50;1.00;;;;;;4921834;29;20238;-82
2023/02/03 07:18:48;;;;;;;28.75;19.02;;;6.50;1.00;;;;;;4962762;23;20237;-86
2023/02/03 07:21:16;;;;;;;30.63;20.25;;;6.50;1.00;;;;;;4943738;29;20204;-86
2023/02/03 07:23:43;;;;;;;34.83;21.13;;;6.50;1.00;;;;;;4952880;28;20254;-85
2023/02/03 07:26:11;;;;;;;36.00;21.27;;;6.60;1.00;;;;;;4961092;28;20215;-85
2023/02/03 07:28:39;;;;;;;43.97;24.63;;;6.60;1.00;;;;;;4944399;28;20260;-86
2023/02/03 07:31:06;;;;;;;36.17;23.30;;;6.70;1.00;;;;;;4941281;29;20223;-86
2023/02/03 07:33:33;;;;;;;32.30;21.20;;;6.70;1.00;;;;;;4931656;28;20332;-86
2023/02/03 07:36:00;;;;;;;33.80;22.95;;;6.70;1.00;;;;;;4925980;29;20580;-86
2023/02/03 07:38:28;;;;;;;29.63;19.73;;;6.70;1.00;;;;;;4925242;29;20236;-86
2023/02/03 07:40:55;;;;;;;29.13;19.00;;;6.70;1.00;;;;;;4924758;29;20275;-86
2023/02/03 07:43:22;;;;;;;29.55;19.05;;;6.80;1.00;;;;;;4926479;29;20291;-86
2023/02/03 07:45:51;;;;;;;25.63;17.55;;;6.80;1.00;;;;;;4923530;29;20239;-84
2023/02/03 07:48:17;;;;;;;25.25;12.50;;;6.90;1.00;;;;;;4923234;29;20291;-86
2023/02/03 07:50:45;;;;;;;21.33;15.65;;;6.60;1.00;;;;;;4923684;29;20306;-84
2023/02/03 07:53:12;;;;;;;27.15;17.35;;;6.90;1.00;;;;;;4925087;29;20223;-84
2023/02/03 07:55:39;;;;;;;28.85;16.20;;;6.60;1.00;;;;;;4940058;29;20255;-82
2023/02/03 07:58:06;;;;;;;25.30;17.80;;;6.90;1.00;;;;;;4940362;28;20215;-84
2023/02/03 08:00:34;;;;;;;25.48;16.60;;;6.90;1.00;;;;;;4928819;29;20255;-83
2023/02/03 08:03:02;;;;;;;21.30;14.85;;;6.90;1.00;;;;;;4934211;29;20207;-85
2023/02/03 08:05:29;;;;;;;22.10;13.48;;;6.90;1.00;;;;;;4929470;29;20218;-85
2023/02/03 08:07:56;;;;;;;21.92;15.00;;;6.90;1.00;;;;;;4926154;29;20315;-84
2023/02/03 08:10:23;;;;;;;22.30;13.80;;;6.90;1.00;;;;;;4925970;29;20215;-84
2023/02/03 08:12:52;;;;;;;18.27;12.43;;;6.90;1.00;;;;;;4926757;29;20697;-83
2023/02/03 08:15:19;;;;;;;21.33;13.65;;;6.90;1.00;;;;;;4929241;29;20233;-84
2023/02/03 08:17:46;;;;;;;17.90;13.57;;;6.90;1.00;;;;;;4927332;29;20246;-85
2023/02/03 08:20:15;;;;;;;18.48;12.85;;;6.60;1.00;;;;;;4927528;29;20290;-86
2023/02/03 08:22:42;;;;;;;18.83;11.27;;;6.90;1.00;;;;;;4925795;29;20229;-83
2023/02/03 08:25:09;;;;;;;21.55;12.45;;;7.00;1.00;;;;;;4926653;29;20218;-84
2023/02/03 08:27:36;;;;;;;19.08;13.18;;;6.90;1.00;;;;;;4925745;29;20640;-84
2023/02/03 08:30:03;;;;;;;16.40;12.68;;;6.90;1.00;;;;;;4926774;29;20218;-83
2023/02/03 08:32:30;;;;;;;15.60;11.75;;;6.90;1.00;;;;;;4939843;29;20276;-84
2023/02/03 08:34:57;;;;;;;16.27;11.98;;;6.90;1.00;;;;;;4938589;29;20291;-85
2023/02/03 08:37:25;;;;;;;18.63;11.55;;;6.90;1.00;;;;;;4940185;29;20287;-86
2023/02/03 08:39:53;;;;;;;14.20;9.45;;;6.90;1.00;;;;;;4936584;29;20215;-85
2023/02/03 08:42:20;;;;;;;13.43;9.38;;;7.30;1.00;;;;;;4929347;29;20212;-85
2023/02/03 08:44:48;;;;;;;18.17;10.15;;;7.00;1.00;;;;;;4929333;29;20200;-84
2023/02/03 08:47:15;;;;;;;10.93;9.30;;;7.00;1.00;;;;;;4928554;29;20227;-85
2023/02/03 08:49:42;;;;;;;10.05;9.05;;;7.00;1.00;;;;;;4929401;29;20236;-84
2023/02/03 08:52:12;;;;;;;10.60;9.48;;;7.00;1.00;;;;;;4927868;29;20204;-83
2023/02/03 08:54:41;;;;;;;13.57;10.77;;;7.00;1.00;;;;;;4926643;29;20218;-86
2023/02/03 08:57:08;;;;;;;10.13;8.65;;;7.10;1.00;;;;;;4926748;29;20601;-84
2023/02/03 08:59:37;;;;;;;14.18;10.73;;;7.10;1.00;;;;;;4926737;29;20257;-87
2023/02/03 09:02:04;;;;;;;16.20;9.00;;;7.00;1.00;;;;;;4927971;29;20719;-85
2023/02/03 09:04:32;;;;;;;14.30;9.98;;;7.10;1.00;;;;;;4927076;29;20208;-85
2023/02/03 09:07:01;;;;;;;13.05;10.10;;;7.00;1.00;;;;;;4934095;29;20228;-83
2023/02/03 09:09:28;;;;;;;11.82;8.93;;;6.80;1.00;;;;;;4936238;29;20264;-84
2023/02/03 09:12:00;;;;;;;14.50;9.80;;;7.10;1.00;;;;;;4941119;28;20275;-84
2023/02/03 09:14:28;;;;;;;15.65;9.63;;;7.10;1.00;;;;;;4943089;28;20226;-84
2023/02/03 09:16:55;;;;;;;11.23;7.35;;;6.80;1.00;;;;;;4936304;29;20231;-85
2023/02/03 09:19:21;;;;;;;10.90;8.32;;;7.10;1.00;;;;;;4933865;29;20207;-83
2023/02/03 09:21:49;;;;;;;12.88;7.90;;;7.10;1.00;;;;;;4932299;29;20203;-85
2023/02/03 09:24:16;;;;;;;7.93;7.18;;;7.10;1.00;;;;;;4927874;29;20256;-86
2023/02/03 09:26:43;;;;;;;12.02;8.00;;;7.00;1.00;;;;;;4926712;29;20252;-86
2023/02/03 09:29:11;;;;;;;9.10;6.68;;;7.40;1.00;;;;;;4927513;29;20215;-85
2023/02/03 09:31:38;;;;;;;10.27;6.97;;;7.20;1.00;;;;;;4926881;29;20306;-84
2023/02/03 09:34:05;;;;;;;8.35;7.55;;;7.20;1.00;;;;;;4927424;29;20234;-84
2023/02/03 09:36:32;;;;;;;8.73;6.53;;;7.20;1.00;;;;;;4926939;29;20222;-84
2023/02/03 09:38:59;;;;;;;10.88;7.55;;;7.20;1.00;;;;;;4927153;29;20759;-85
2023/02/03 09:41:56;;;;;;;8.43;7.00;;;7.20;1.00;;;;;;4927542;29;20218;-84
2023/02/03 09:44:31;;;;;;;7.47;6.60;;;7.30;1.00;;;;;;4937860;29;20234;-86
2023/02/03 09:47:02;;;;;;;13.70;6.97;;;7.20;1.00;;;;;;4942913;29;20291;-84
2023/02/03 09:49:38;;;;;;;7.07;6.43;;;7.30;1.00;;;;;;4942394;29;20215;-85
2023/02/03 09:52:12;;;;;;;6.45;5.80;;;7.40;1.00;;;;;;4930524;29;20268;-85
2023/02/03 09:54:45;;;;;;;10.82;8.00;;;7.20;1.00;;;;;;4929042;29;20294;-87
2023/02/03 09:57:17;;;;;;;8.48;6.05;;;7.40;1.00;;;;;;4926538;29;20235;-85
2023/02/03 09:59:45;;;;;;;6.85;5.82;;;7.40;1.00;;;;;;4927758;29;20188;-85
2023/02/03 10:02:25;;;;;;;6.28;5.40;;;7.40;1.00;;;;;;4925959;29;20247;-85
2023/02/03 10:04:59;;;;;;;6.47;5.80;;;7.40;1.00;;;;;;4927130;29;20297;-85
2023/02/03 10:07:40;;;;;;;6.90;5.88;;;7.50;1.00;;;;;;4928041;29;20235;-85
2023/02/03 10:10:15;;;;;;;6.95;5.35;;;7.50;1.00;;;;;;4927656;29;20214;-85
2023/02/03 10:13:00;;;;;;;6.53;5.65;;;7.50;1.00;;;;;;4924079;29;20263;-84
2023/02/03 10:15:52;;;;;;;5.78;4.55;;;7.50;1.00;;;;;;4925087;29;20294;-85
2023/02/03 10:18:23;;;;;;;6.85;4.90;;;7.50;1.00;;;;;;4925855;29;20242;-84
2023/02/03 10:20:53;;;;;;;6.70;6.10;;;7.60;1.00;;;;;;4926140;29;20196;-86
2023/02/03 10:23:26;;;;;;;4.93;4.43;;;7.60;1.00;;;;;;4938497;29;20192;-85
2023/02/03 10:25:55;;;;;;;5.45;4.75;;;7.70;1.00;;;;;;4940122;29;20207;-85
2023/02/03 10:28:26;;;;;;;7.72;4.93;;;7.60;1.00;;;;;;4939862;29;20246;-86
2023/02/03 10:30:57;;;;;;;6.90;4.90;;;7.70;1.00;;;;;;4940016;29;20299;-85
2023/02/03 10:33:26;;;;;;;14.73;5.72;;;7.70;1.00;;;;;;4941503;28;20240;-83
2023/02/03 10:35:57;;;;;;;10.07;6.60;;;7.70;1.00;;;;;;4940957;29;20272;-84
2023/02/03 10:38:38;;;;;;;15.35;6.35;;;7.70;1.00;;;;;;4940279;29;20244;-85
2023/02/03 10:41:05;;;;;;;7.13;4.93;;;7.80;1.00;;;;;;4941772;29;20247;-84
2023/02/03 10:43:50;;;;;;;4.57;4.15;;;7.80;1.00;;;;;;4940938;29;20627;-85
2023/02/03 10:46:20;;;;;;;4.67;3.83;;;7.70;1.00;;;;;;4939346;29;20188;-85
2023/02/03 10:48:48;;;;;;;10.57;4.15;;;7.70;1.00;;;;;;4936840;29;20539;-89
2023/02/03 10:51:20;;;;;;;4.53;3.90;;;7.30;1.00;;;;;;4934101;29;20207;-85
2023/02/03 10:53:47;;;;;;;5.63;2.10;;;7.70;1.00;;;;;;4929536;29;20749;-85
2023/02/03 10:56:17;;;;;;;4.47;1.75;;;7.70;1.00;;;;;;4934253;29;20208;-83
2023/02/03 10:58:50;;;;;;;5.53;1.75;;;7.10;1.00;;;;;;4931385;29;20232;-82
2023/02/03 11:01:21;;;;;;;5.07;2.10;;;6.60;1.00;;;;;;4929219;29;20283;-82
2023/02/03 11:03:57;;;;;;;2.80;1.60;;;6.70;1.00;;;;;;4926999;29;20252;-83
2023/02/03 11:06:24;;;;;;;6.28;1.60;;;6.80;1.00;;;;;;4924083;29;20195;-82
2023/02/03 11:08:52;;;;;;;4.38;2.25;;;6.80;1.00;;;;;;4925554;29;20228;-84
2023/02/03 11:11:24;;;;;;;5.75;2.00;;;6.90;1.00;;;;;;4924194;29;20212;-82
2023/02/03 11:13:56;;;;;;;11.45;3.05;;;6.90;99.90;;;;;;4924745;29;20211;-84
2023/02/03 11:16:25;;;;;;;5.63;2.17;;;6.90;99.90;;;;;;4928942;29;20218;-83
2023/02/03 11:18:55;;;;;;;8.95;2.78;;;7.00;99.90;;;;;;4933446;29;20311;-82
2023/02/03 11:21:23;;;;;;;4.70;1.95;;;7.10;99.90;;;;;;4940350;29;20227;-80
2023/02/03 11:23:56;;;;;;;6.00;1.90;;;7.10;99.90;;;;;;4937171;29;20239;-82
2023/02/03 11:26:26;;;;;;;7.13;2.47;;;7.10;99.90;;;;;;4928382;29;20191;-82
2023/02/03 11:28:56;;;;;;;12.02;2.40;;;7.20;99.90;;;;;;4928990;29;20263;-84
2023/02/03 11:31:26;;;;;;;4.68;2.40;;;7.30;99.90;;;;;;4928669;29;20239;-81
2023/02/03 11:33:59;;;;;;;8.00;2.65;;;7.30;99.90;;;;;;4926084;29;20639;-81
2023/02/03 11:36:29;;;;;;;11.68;3.22;;;7.30;99.90;;;;;;4925188;29;20188;-83
2023/02/03 11:39:21;;;;;;;4.55;2.58;;;7.40;35.40;;;;;;4924010;29;20291;-83
2023/02/03 11:41:49;;;;;;;11.50;3.20;;;7.40;99.90;;;;;;4913415;29;20208;-82
2023/02/03 11:44:28;;;;;;;9.10;3.08;;;7.40;99.90;;;;;;4925193;29;20303;-81
2023/02/03 11:46:59;;;;;;;15.68;4.20;;;7.20;99.90;;;;;;4929759;29;20191;-81
2023/02/03 11:50:03;;;;;;;10.13;2.72;;;7.50;29.40;;;;;;4932156;29;20264;-82
2023/02/03 11:53:00;;;;;;;10.27;3.50;;;7.50;1.00;;;;;;4927096;29;20606;-83
2023/02/03 11:55:40;;;;;;;8.23;3.58;;;7.60;1.00;;;;;;4923438;29;20303;-81
2023/02/03 11:58:23;;;;;;;11.35;4.00;;;7.60;1.00;;;;;;4925270;29;20310;-83
2023/02/03 12:01:00;;;;;;;16.05;4.28;;;7.70;1.00;;;;;;4923864;29;20195;-83
2023/02/03 12:04:02;;;;;;;45.10;5.95;;;7.70;1.00;;;;;;4924137;29;20194;-83
2023/02/03 12:06:53;;;;;;;19.42;4.07;;;7.40;1.00;;;;;;4920103;29;20238;-84
2023/02/03 12:09:28;;;;;;;11.18;2.55;;;7.70;1.00;;;;;;4924835;29;20203;-82
2023/02/03 12:12:22;;;;;;;17.48;4.53;;;7.80;1.00;;;;;;4938826;29;20216;-81
2023/02/03 12:14:59;;;;;;;15.02;4.70;;;7.70;1.00;;;;;;4939327;28;20268;-81
2023/02/03 12:17:57;;;;;;;12.88;4.43;;;7.70;1.00;;;;;;4936768;29;20235;-83
2023/02/03 12:20:34;;;;;;;16.30;4.25;;;7.70;1.00;;;;;;4936797;29;20252;-82
2023/02/03 12:23:14;;;;;;;16.73;4.40;;;7.80;1.00;;;;;;4934982;29;20203;-83
2023/02/03 12:25:52;;;;;;;18.10;4.40;;;8.00;99.90;;;;;;4936675;29;20252;-81
2023/02/03 12:28:36;;;;;;;18.48;4.32;;;8.00;99.90;;;;;;4937917;29;20269;-81
2023/02/03 12:31:10;;;;;;;13.68;4.25;;;8.10;99.90;;;;;;4935935;29;20230;-82
2023/02/03 12:33:43;;;;;;;16.73;4.88;;;8.20;99.90;;;;;;4933011;29;20199;-82
2023/02/03 12:36:14;;;;;;;20.48;4.90;;;8.20;99.90;;;;;;4927819;29;20250;-84
2023/02/03 12:38:47;;;;;;;15.15;3.90;;;8.20;99.90;;;;;;4922538;29;20255;-82
2023/02/03 12:41:18;;;;;;;18.73;5.57;;;8.20;1.00;;;;;;4920735;29;20202;-83
2023/02/03 12:43:48;;;;;;;12.73;5.38;;;8.30;1.00;;;;;;4920506;29;20192;-82
2023/02/03 12:46:18;;;;;;;23.17;4.80;;;8.40;99.90;;;;;;4925787;29;20212;-82
2023/02/03 12:48:53;;;;;;;17.60;4.60;;;8.30;2.30;;;;;;4923895;29;20263;-82
2023/02/03 12:51:31;;;;;;;16.25;4.18;;;8.30;1.00;;;;;;4923777;29;20685;-81
2023/02/03 12:54:04;;;;;;;12.65;4.68;;;8.30;99.90;;;;;;4922386;29;20196;-83
2023/02/03 12:56:38;;;;;;;23.83;7.03;;;8.30;1.00;;;;;;4923380;29;20251;-83
2023/02/03 12:59:14;;;;;;;17.17;3.65;;;8.20;1.00;;;;;;4925669;29;20192;-85
2023/02/03 13:01:47;;;;;;;19.15;5.05;;;8.10;11.30;;;;;;4926482;29;20223;-83
2023/02/03 13:04:24;;;;;;;18.83;4.82;;;7.70;99.90;;;;;;4926471;29;20192;-83
2023/02/03 13:06:56;;;;;;;13.27;6.03;;;6.60;66.20;;;;;;4927261;29;20196;-81
2023/02/03 13:09:30;;;;;;;4.80;2.08;;;6.10;99.90;;;;;;4924587;29;20202;-80
2023/02/03 13:12:03;;;;;;;5.35;2.50;;;5.30;99.90;;;;;;4924513;29;20192;-83
2023/02/03 13:14:36;;;;;;;6.63;2.30;;;5.50;99.90;;;;;;4926620;29;20192;-82
2023/02/03 13:17:13;;;;;;;9.32;3.25;;;5.30;99.90;;;;;;4952804;23;20235;-85
2023/02/03 13:19:45;;;;;;;18.60;3.15;;;5.30;99.90;;;;;;4927017;29;20208;-85
2023/02/03 13:22:13;;;;;;;10.45;3.50;;;5.30;99.90;;;;;;4931165;29;20259;-85
2023/02/03 13:24:46;;;;;;;13.75;3.63;;;5.40;99.90;;;;;;4932872;29;20267;-85
2023/02/03 13:27:49;;;;;;;13.23;4.55;;;5.70;99.90;;;;;;4927795;29;20260;-84
2023/02/03 13:30:43;;;;;;;21.17;4.07;;;5.40;99.90;;;;;;4886654;29;20208;-86
2023/02/03 13:33:32;;;;;;;14.93;4.30;;;5.40;99.90;;;;;;4909338;29;20193;-85
2023/02/03 13:36:10;;;;;;;11.25;3.63;;;5.70;99.90;;;;;;4909489;29;20644;-85
2023/02/03 13:38:53;;;;;;;5.65;3.15;;;5.40;99.90;;;;;;4911404;29;20315;-84
2023/02/03 13:41:29;;;;;;;22.65;4.85;;;5.50;99.90;;;;;;4912704;29;20199;-85
2023/02/03 13:43:58;;;;;;;8.80;2.92;;;5.30;99.90;;;;;;4918505;29;20196;-84
2023/02/03 13:46:29;;;;;;;16.05;3.33;;;5.20;99.90;;;;;;4919716;28;20212;-84
2023/02/03 13:48:59;;;;;;;11.63;3.17;;;5.20;99.90;;;;;;4919398;29;20300;-85
2023/02/03 13:51:33;;;;;;;10.77;2.58;;;5.20;99.90;;;;;;4919247;29;20208;-83
2023/02/03 13:54:03;;;;;;;17.70;4.18;;;5.30;99.90;;;;;;4918465;29;20197;-85
2023/02/03 13:56:32;;;;;;;13.75;3.42;;;5.50;79.40;;;;;;4918684;29;20231;-85
2023/02/03 13:59:04;;;;;;;12.85;4.07;;;5.60;26.00;;;;;;4908814;29;20229;-85
2023/02/03 14:01:37;;;;;;;13.73;4.18;;;5.60;1.00;;;;;;4909053;29;20608;-85
2023/02/03 14:04:05;;;;;;;13.30;4.70;;;5.80;29.20;;;;;;4913928;29;20229;-85
2023/02/03 14:06:58;;;;;;;17.02;5.32;;;5.80;1.00;;;;;;4911987;29;20215;-85
2023/02/03 14:09:54;;;;;;;15.43;4.57;;;6.20;1.00;;;;;;4915178;29;20204;-85
2023/02/03 14:12:35;;;;;;;14.18;3.80;;;6.00;1.00;;;;;;4915856;29;20208;-84
2023/02/03 14:15:19;;;;;;;15.88;3.95;;;6.30;1.00;;;;;;4913538;29;20608;-84
2023/02/03 14:18:05;;;;;;;18.73;7.20;;;6.20;1.00;;;;;;4912585;29;20228;-83
2023/02/03 14:21:09;;;;;;;15.80;4.38;;;7.20;1.00;;;;;;4911085;29;20236;-85
2023/02/03 14:23:44;;;;;;;14.02;4.90;;;6.10;1.00;;;;;;4915192;29;20212;-84
2023/02/03 14:26:28;;;;;;;13.10;4.10;;;6.40;1.00;;;;;;4913109;29;20205;-85
2023/02/03 14:28:57;;;;;;;16.05;4.20;;;6.60;1.00;;;;;;4913996;29;20263;-85
2023/02/03 14:31:26;;;;;;;20.58;4.90;;;6.10;1.00;;;;;;4916574;29;20268;-86
2023/02/03 14:34:08;;;;;;;22.02;6.55;;;6.30;1.00;;;;;;4920782;29;20212;-84